Impacts TAF Board INFO
FOR SITUATIONAL AWARENESS. NOT TO BE USED FOR FLIGHT PLANNING PURPOSES.
IDs:

KSFO - San Francisco Intl, CA, US

Issued at 0300 UTC 25 Apr 2017
Updated at 0441 UTC 25 Apr 2017
Potential Impact None Slight Moderate High
Time0356Z 25/05Z 25/06Z 25/07Z 25/08Z 25/09Z 25/10Z 25/11Z 25/12Z 25/13Z 25/14Z 25/15Z 25/16Z 25/17Z>>
Type OBS PRVL PRVL PRVL PRVL PRVL PRVL PRVL PRVL PRVL PRVL PRVL PRVL PRVL
VIS 10 >6 >6 >6 >6 >6 >6 >6 >6 >6 >6 >6 >6 >6
CIG -- 100 100 100 100 100 20 20 20 20 20 20 20 200
Cover SCT OVC OVC OVC OVC OVC OVC OVC OVC OVC OVC OVC OVC BKN
FltCat VFR VFR VFR VFR VFR VFR MVFR MVFR MVFR MVFR MVFR MVFR MVFR VFR
WX -- -- -- -- -- -- -- -- -- -- -- -- -- --
WDir 270 270 270 270 270 270 260 260 260 260 260 260 260 280
WSpd 22 18 18 18 18 18 11 11 11 11 11 11 11 10
WGst 29 23 23 23 23 23 -- -- -- -- -- -- -- --

Raw TAF
KSFO 250300Z 2503/2606 27018G23KT P6SM FEW012 SCT060 OVC100
  FM251000 26011KT P6SM FEW008 SCT010 OVC020
  FM251700 28010KT P6SM FEW012 SCT020 BKN200
  FM252100 28016G23KT P6SM FEW012 BKN150
  FM260400 28012KT P6SM FEW010 BKN150


Raw METAR
KSFO 250356Z 27022G29KT 10SM FEW012 FEW045 SCT110 13/09 A3005 RMK AO2 PK WND 27030/0337 SLP176 T01280089
KSFO 250256Z 27021G25KT 10SM FEW012 FEW060 BKN110 13/09 A3005 RMK AO2 PK WND 27027/0210 SLP176 T01330094 56005
KSFO 250156Z 28019KT 10SM FEW012 FEW039 OVC120 14/10 A3005 RMK AO2 SLP177 T01390100

METAR Board
Radar Display
Forecast Discussion

FOR SITUATIONAL AWARENESS. NOT TO BE USED FOR FLIGHT PLANNING PURPOSES.

Page loaded:  04:41 UTC  |   09:41 PM Pacific  |   10:41 PM Mountain  |   11:41 PM Central  |   12:41 AM Eastern

 

ADVISORIES

FORECASTS

FORECASTS

OBSERVATIONS

USER TOOLS

ABOUT US